Time;durP1;ratioP1;P1;durP2;ratioP2;P2;SDS_P1;SDS_P2;PMS_P1;PMS_P2;Temp;Humidity;BMP_temperature;BMP_pressure;BME280_temperature;BME280_humidity;BME280_pressure;Samples;Min_cycle;Max_cycle;Signal;HPM_P1;HPM_P2
2023/05/01 00:00:13;;;;;;;2.00;1.80;;;;;;;23.15;47.03;100828.31;4569137;27;20036;-63
2023/05/01 00:02:29;;;;;;;1.70;1.60;;;;;;;23.14;46.69;100815.09;4570475;27;20055;-63
2023/05/01 00:04:39;;;;;;;2.10;1.90;;;;;;;23.14;46.94;100824.59;4571691;27;20044;-63
2023/05/01 00:06:50;;;;;;;1.90;1.70;;;;;;;23.13;47.02;100822.09;4554130;27;20485;-63
2023/05/01 00:09:01;;;;;;;2.05;1.85;;;;;;;23.15;46.88;100819.66;4570067;27;20111;-63
2023/05/01 00:11:11;;;;;;;1.90;1.70;;;;;;;23.13;46.75;100814.28;4542622;27;20762;-63
2023/05/01 00:13:23;;;;;;;1.90;1.60;;;;;;;23.13;46.75;100808.53;4570294;27;20063;-63
2023/05/01 00:15:33;;;;;;;1.67;1.58;;;;;;;23.12;46.92;100812.59;4569168;27;20150;-63
2023/05/01 00:17:44;;;;;;;1.70;1.40;;;;;;;23.09;47.06;100796.09;4571665;27;20119;-63
2023/05/01 00:19:54;;;;;;;1.55;1.40;;;;;;;23.13;47.09;100801.94;4568117;27;20316;-63
2023/05/01 00:22:05;;;;;;;1.88;1.50;;;;;;;23.12;46.66;100803.16;4570626;27;20063;-63
2023/05/01 00:24:15;;;;;;;1.77;1.60;;;;;;;23.12;46.49;100791.63;4555388;27;20131;-63
2023/05/01 00:26:29;;;;;;;1.50;1.40;;;;;;;23.09;46.95;100793.22;4568361;27;20381;-63
2023/05/01 00:28:39;;;;;;;2.15;1.60;;;;;;;23.03;47.00;100782.38;4569298;27;20209;-63
2023/05/01 00:30:50;;;;;;;1.92;1.40;;;;;;;23.09;46.93;100786.59;4567753;27;20047;-63
2023/05/01 00:33:01;;;;;;;1.50;1.40;;;;;;;23.08;46.82;100779.19;4571050;27;20035;-64
2023/05/01 00:35:12;;;;;;;1.73;1.60;;;;;;;23.08;46.57;100782.91;4553451;28;20033;-63
2023/05/01 00:37:23;;;;;;;1.60;1.50;;;;;;;23.06;46.91;100781.59;4569770;27;20083;-63
2023/05/01 00:39:33;;;;;;;1.60;1.50;;;;;;;23.06;46.97;100778.72;4567985;27;20032;-63
2023/05/01 00:41:44;;;;;;;1.52;1.42;;;;;;;23.07;46.90;100771.78;4569217;27;20590;-63
2023/05/01 00:43:54;;;;;;;2.65;1.65;;;;;;;23.04;46.95;100773.34;4570775;27;20083;-63
2023/05/01 00:46:06;;;;;;;1.55;1.45;;;;;;;22.93;46.64;100755.03;4568804;27;20099;-63
2023/05/01 00:48:17;;;;;;;1.40;1.30;;;;;;;23.04;46.63;100766.78;4570205;27;20125;-63
2023/05/01 00:50:28;;;;;;;1.40;1.30;;;;;;;23.03;46.50;100770.84;4543189;27;20090;-63
2023/05/01 00:52:39;;;;;;;1.60;1.50;;;;;;;23.04;46.78;100778.31;4569720;27;20575;-63
2023/05/01 00:54:51;;;;;;;1.50;1.40;;;;;;;23.02;46.55;100764.28;4568586;27;20040;-63
2023/05/01 00:57:03;;;;;;;1.50;1.40;;;;;;;23.04;46.67;100772.53;4541958;28;20133;-63
2023/05/01 00:59:14;;;;;;;1.50;1.40;;;;;;;22.98;46.38;100757.59;4559077;27;20069;-63
2023/05/01 01:01:24;;;;;;;1.60;1.40;;;;;;;23.01;46.73;100751.09;4571516;27;20123;-63
2023/05/01 01:03:34;;;;;;;1.58;1.40;;;;;;;23.02;46.63;100751.94;4568768;27;20631;-63
2023/05/01 01:06:03;;;;;;;1.40;1.30;;;;;;;23.01;46.34;100744.50;4540993;27;20155;-63
2023/05/01 01:08:28;;;;;;;1.60;1.50;;;;;;;23.01;46.46;100747.38;4571530;27;20082;-63
2023/05/01 01:11:18;;;;;;;1.48;1.38;;;;;;;23.02;46.56;100743.28;4547783;27;20025;-63
2023/05/01 01:13:37;;;;;;;2.35;1.38;;;;;;;23.01;46.63;100739.56;4542049;28;20036;-63
2023/05/01 01:15:58;;;;;;;1.48;1.38;;;;;;;22.98;46.46;100727.97;4567935;27;20017;-63
2023/05/01 01:18:31;;;;;;;1.38;1.27;;;;;;;22.99;46.50;100738.31;4568249;27;20105;-63
2023/05/01 01:21:10;;;;;;;2.08;1.38;;;;;;;23.00;46.64;100731.31;4566990;27;20111;-63
2023/05/01 01:23:51;;;;;;;1.50;1.40;;;;;;;22.99;46.74;100729.66;4548551;27;20165;-63
2023/05/01 01:26:27;;;;;;;1.40;1.30;;;;;;;22.98;46.52;100722.22;4549857;27;20037;-63
2023/05/01 01:29:15;;;;;;;1.40;1.27;;;;;;;22.97;46.51;100723.44;4567249;27;20187;-63
2023/05/01 01:31:40;;;;;;;1.38;1.27;;;;;;;22.93;46.74;100716.81;4570747;27;20051;-63
2023/05/01 01:34:03;;;;;;;1.33;1.23;;;;;;;22.97;46.65;100720.56;4551953;27;20360;-63
2023/05/01 01:36:33;;;;;;;1.38;1.27;;;;;;;22.94;46.30;100715.56;4541628;27;20642;-63
2023/05/01 01:39:08;;;;;;;1.60;1.30;;;;;;;22.95;46.60;100718.06;4571773;27;20032;-62
2023/05/01 01:41:33;;;;;;;1.40;1.30;;;;;;;22.90;46.80;100708.91;4568441;27;20119;-63
2023/05/01 01:43:49;;;;;;;1.30;1.20;;;;;;;22.91;46.38;100704.81;4567002;27;20139;-63
2023/05/01 01:46:04;;;;;;;;;;;;;;;22.93;46.72;100711.03;4570368;27;20079;-63
2023/05/01 01:48:20;;;;;;;1.40;1.30;;;;;;;22.90;46.75;100703.97;4540830;27;19983;-63
2023/05/01 01:50:32;;;;;;;1.20;1.10;;;;;;;22.75;46.17;100672.44;4550788;28;20040;-63
2023/05/01 01:52:46;;;;;;;1.30;1.20;;;;;;;22.90;46.71;100698.22;4555095;27;20033;-63
2023/05/01 01:55:05;;;;;;;1.70;1.52;;;;;;;22.92;46.23;100706.47;4553505;27;21511;-62
2023/05/01 01:57:18;;;;;;;1.40;1.30;;;;;;;22.91;46.13;100701.94;4551167;27;20029;-63
2023/05/01 01:59:33;;;;;;;1.50;1.40;;;;;;;22.91;46.56;100693.31;4570822;27;20067;-63
2023/05/01 02:01:47;;;;;;;1.92;1.40;;;;;;;;;;4552553;27;20070;-64
2023/05/01 02:03:58;;;;;;;1.27;1.17;;;;;;;22.89;46.62;100689.97;4554770;28;20040;-63
2023/05/01 02:06:11;;;;;;;1.25;1.15;;;;;;;22.88;46.29;100686.25;4572346;27;20794;-63
2023/05/01 02:08:24;;;;;;;1.13;1.02;;;;;;;22.90;46.16;100691.63;4553379;27;20048;-62
2023/05/01 02:10:35;;;;;;;1.40;1.30;;;;;;;22.89;46.56;100689.97;4561294;27;20032;-63
2023/05/01 02:12:50;;;;;;;1.65;1.10;;;;;;;22.85;46.10;100672.63;4553469;27;20037;-63
2023/05/01 02:15:01;;;;;;;1.25;1.00;;;;;;;22.85;46.52;100677.56;4555069;27;20027;-62
2023/05/01 02:17:14;;;;;;;1.38;1.27;;;;;;;22.87;46.28;100680.88;4569986;27;20051;-63
2023/05/01 02:19:25;;;;;;;1.40;1.30;;;;;;;22.85;46.03;100666.06;4543275;28;20041;-62
2023/05/01 02:21:37;;;;;;;1.52;1.30;;;;;;;22.85;46.59;100660.31;4556000;27;20040;-63
2023/05/01 02:23:48;;;;;;;1.20;1.10;;;;;;;22.84;46.37;100656.59;4568918;27;20121;-63
2023/05/01 02:26:01;;;;;;;1.30;1.20;;;;;;;22.86;46.53;100659.06;4571443;27;20131;-63
2023/05/01 02:28:17;;;;;;;1.13;1.02;;;;;;;22.84;46.22;100656.59;4557086;27;20642;-63
2023/05/01 02:30:27;;;;;;;1.30;1.20;;;;;;;22.81;46.42;100647.88;4570962;27;20093;-63
2023/05/01 02:32:38;;;;;;;1.35;1.10;;;;;;;22.81;46.42;100648.72;4569986;27;20446;-63
2023/05/01 02:34:48;;;;;;;1.30;1.20;;;;;;;22.85;46.49;100651.66;4555185;27;20041;-63
2023/05/01 02:36:59;;;;;;;1.40;1.10;;;;;;;22.85;46.36;100648.78;4556963;27;20032;-62
2023/05/01 02:39:10;;;;;;;1.48;1.25;;;;;;;22.81;46.40;100642.13;4572231;27;20665;-62
2023/05/01 02:41:21;;;;;;;1.20;1.10;;;;;;;22.84;45.85;100644.22;4570770;27;20058;-63
2023/05/01 02:43:40;;;;;;;1.65;1.13;;;;;;;22.82;46.12;100635.97;4568096;27;20072;-62
2023/05/01 02:45:51;;;;;;;1.33;1.10;;;;;;;22.82;46.10;100632.25;4544598;27;20036;-63
2023/05/01 02:48:05;;;;;;;1.20;1.10;;;;;;;22.81;46.18;100631.44;4570661;27;20047;-63
2023/05/01 02:50:16;;;;;;;1.27;1.10;;;;;;;22.80;46.25;100629.75;4567908;27;20060;-62
2023/05/01 02:52:28;;;;;;;1.10;1.00;;;;;;;22.81;46.14;100631.44;4551122;28;20465;-62
2023/05/01 02:54:51;;;;;;;1.20;1.10;;;;;;;22.79;46.16;100624.38;4555958;28;20028;-63
2023/05/01 02:57:05;;;;;;;1.30;1.20;;;;;;;22.76;46.16;100617.38;4555100;27;20795;-63
2023/05/01 02:59:15;;;;;;;1.20;1.10;;;;;;;22.77;46.17;100615.31;4570391;27;20032;-63
2023/05/01 03:01:27;;;;;;;1.00;1.00;;;;;;;22.77;46.09;100619.03;4571552;27;20531;-62
2023/05/01 03:03:37;;;;;;;1.05;0.95;;;;;;;22.79;45.95;100618.63;4568724;27;20037;-63
2023/05/01 03:05:48;;;;;;;1.05;1.00;;;;;;;22.75;46.14;100609.97;4555953;27;20040;-63
2023/05/01 03:07:58;;;;;;;1.10;1.00;;;;;;;22.77;45.96;100606.69;4555137;27;20024;-63
2023/05/01 03:10:10;;;;;;;1.13;1.02;;;;;;;22.76;46.27;100605.00;4572943;27;20096;-62
2023/05/01 03:12:20;;;;;;;1.23;1.10;;;;;;;22.78;45.87;100606.31;4569899;27;20040;-63
2023/05/01 03:14:30;;;;;;;1.10;1.00;;;;;;;22.78;45.89;100605.47;4571675;27;20040;-63
2023/05/01 03:16:41;;;;;;;1.10;1.00;;;;;;;22.73;46.19;100600.88;4554629;28;20040;-63
2023/05/01 03:18:51;;;;;;;1.10;1.00;;;;;;;22.75;46.37;100603.34;4569671;27;20036;-63
2023/05/01 03:21:02;;;;;;;1.30;1.00;;;;;;;22.75;45.87;100612.00;4552484;27;20040;-63
2023/05/01 03:23:13;;;;;;;1.10;1.00;;;;;;;22.76;46.43;100605.84;4554411;27;20150;-62
2023/05/01 03:25:24;;;;;;;0.95;0.90;;;;;;;22.75;46.30;100594.72;4554911;27;20098;-63
2023/05/01 03:27:34;;;;;;;1.17;1.00;;;;;;;22.75;46.22;100597.59;4569596;27;20724;-62
2023/05/01 03:29:46;;;;;;;0.88;0.88;;;;;;;22.73;46.02;100588.50;4553406;27;20091;-63
2023/05/01 03:31:56;;;;;;;1.73;1.02;;;;;;;22.75;46.32;100601.31;4542058;27;20079;-63
2023/05/01 03:34:07;;;;;;;1.10;1.00;;;;;;;22.70;46.41;100590.13;4560597;28;20040;-62
2023/05/01 03:36:17;;;;;;;0.90;0.90;;;;;;;22.73;45.92;100582.75;4555602;27;20047;-64
2023/05/01 03:38:32;;;;;;;1.00;0.90;;;;;;;22.71;46.32;100586.03;4552642;27;20039;-63
2023/05/01 03:40:55;;;;;;;1.00;0.95;;;;;;;22.71;46.31;100585.19;4568549;27;20052;-62
2023/05/01 03:43:24;;;;;;;0.82;0.82;;;;;;;22.72;46.60;100583.97;4569880;27;20068;-62
2023/05/01 03:45:36;;;;;;;0.80;0.80;;;;;;;22.72;46.75;100581.91;4554154;28;20040;-62
2023/05/01 03:47:46;;;;;;;0.73;0.73;;;;;;;22.71;46.47;100582.31;4556750;27;20033;-63
2023/05/01 03:49:58;;;;;;;0.75;0.75;;;;;;;22.68;46.69;100580.19;4555087;27;20040;-62
2023/05/01 03:52:10;;;;;;;1.00;0.90;;;;;;;22.70;47.30;100578.63;4554070;28;20024;-63
2023/05/01 03:54:21;;;;;;;0.77;0.77;;;;;;;22.69;46.71;100571.19;4552238;27;20040;-63
2023/05/01 03:56:41;;;;;;;0.70;0.70;;;;;;;22.68;47.15;100572.41;4567808;27;20701;-63
2023/05/01 03:58:53;;;;;;;0.77;0.77;;;;;;;22.66;47.12;100566.19;4553433;27;20576;-63
2023/05/01 04:01:03;;;;;;;0.70;0.70;;;;;;;22.69;47.63;100576.94;4567958;27;20042;-62
2023/05/01 04:03:14;;;;;;;0.80;0.80;;;;;;;22.67;47.49;100562.13;4554756;27;20041;-61
2023/05/01 04:05:26;;;;;;;0.80;0.80;;;;;;;22.68;46.90;100562.94;4553034;27;20131;-63
2023/05/01 04:07:42;;;;;;;1.02;0.93;;;;;;;22.69;46.26;100564.63;4567540;27;20040;-62
2023/05/01 04:09:53;;;;;;;1.00;0.90;;;;;;;22.62;46.13;100553.78;4558796;27;20032;-63
2023/05/01 04:12:03;;;;;;;0.70;0.70;;;;;;;22.66;46.39;100569.06;4553433;28;20590;-62
2023/05/01 04:14:14;;;;;;;0.85;0.80;;;;;;;22.67;46.74;100567.03;4568117;27;20133;-62
2023/05/01 04:16:24;;;;;;;1.40;0.90;;;;;;;22.68;46.42;100571.56;4551756;27;20123;-62
2023/05/01 04:18:35;;;;;;;0.70;0.70;;;;;;;22.67;46.25;100569.91;4554245;27;20456;-62
2023/05/01 04:20:45;;;;;;;0.80;0.80;;;;;;;22.62;46.40;100558.72;4554552;27;20036;-62
2023/05/01 04:22:56;;;;;;;1.00;0.90;;;;;;;22.65;46.05;100569.44;4569288;27;20052;-62
2023/05/01 04:25:07;;;;;;;0.93;0.80;;;;;;;22.64;46.19;100564.91;4549464;27;20072;-63
2023/05/01 04:27:19;;;;;;;0.75;0.70;;;;;;;22.61;46.25;100562.81;4553919;27;20117;-62
2023/05/01 04:29:29;;;;;;;0.73;0.73;;;;;;;22.62;46.15;100570.22;4566416;27;20249;-62
2023/05/01 04:31:40;;;;;;;0.70;0.70;;;;;;;22.66;46.15;100568.25;4549939;27;20103;-62
2023/05/01 04:33:51;;;;;;;1.58;0.90;;;;;;;22.65;46.22;100563.69;4553839;27;20021;-62
2023/05/01 04:36:02;;;;;;;0.80;0.80;;;;;;;22.65;45.72;100566.56;4540837;28;20099;-63
2023/05/01 04:38:13;;;;;;;1.00;0.90;;;;;;;22.65;45.93;100572.31;4542151;27;20060;-63
2023/05/01 04:40:26;;;;;;;1.33;0.90;;;;;;;22.64;45.99;100562.03;4568679;27;20591;-63
2023/05/01 04:42:36;;;;;;;1.33;0.80;;;;;;;22.64;45.82;100556.28;4548529;28;20060;-62
2023/05/01 04:44:47;;;;;;;1.20;0.90;;;;;;;22.63;45.73;100560.38;4553166;27;20042;-63
2023/05/01 04:46:57;;;;;;;0.90;0.90;;;;;;;22.65;45.65;100557.94;4540398;27;20029;-62
2023/05/01 04:49:08;;;;;;;0.80;0.80;;;;;;;22.62;46.13;100547.19;4549305;27;20222;-62
2023/05/01 04:51:19;;;;;;;1.08;0.98;;;;;;;22.59;45.86;100543.06;4553078;27;20031;-62
2023/05/01 04:53:30;;;;;;;1.00;0.90;;;;;;;22.61;45.83;100551.31;4567907;27;20032;-62
2023/05/01 04:55:41;;;;;;;0.90;0.80;;;;;;;22.59;45.87;100542.22;4547384;27;20179;-62
2023/05/01 04:57:57;;;;;;;0.70;0.70;;;;;;;22.62;46.06;100547.19;4535187;27;20029;-62
2023/05/01 05:00:09;;;;;;;0.82;0.70;;;;;;;22.62;45.69;100544.31;4569578;27;20071;-63
2023/05/01 05:02:28;;;;;;;0.80;0.80;;;;;;;22.62;45.67;100548.03;4552959;28;20643;-64
2023/05/01 05:04:40;;;;;;;0.82;0.82;;;;;;;22.61;45.94;100548.44;4555377;27;20041;-62
2023/05/01 05:06:50;;;;;;;0.70;0.70;;;;;;;22.59;45.83;100542.22;4550614;27;20440;-63
2023/05/01 05:09:10;;;;;;;0.80;0.80;;;;;;;22.57;45.92;100538.88;4554131;27;20600;-62
2023/05/01 05:11:20;;;;;;;0.80;0.80;;;;;;;22.60;45.79;100543.88;4568097;27;20039;-63
2023/05/01 05:13:38;;;;;;;0.88;0.82;;;;;;;22.59;46.04;100547.97;4566786;27;20127;-63
2023/05/01 05:15:54;;;;;;;1.00;0.82;;;;;;;22.57;45.57;100538.88;4550998;27;20092;-62
2023/05/01 05:18:07;;;;;;;0.90;0.75;;;;;;;22.58;45.82;100550.00;4567420;27;20151;-63
2023/05/01 05:20:17;;;;;;;0.80;0.80;;;;;;;22.55;45.87;100541.34;4554439;27;20603;-62
2023/05/01 05:22:27;;;;;;;1.15;0.95;;;;;;;22.56;45.69;100542.97;4535764;27;20606;-62
2023/05/01 05:25:02;;;;;;;0.80;0.80;;;;;;;22.57;45.99;100550.38;4569910;27;20902;-63
2023/05/01 05:27:14;;;;;;;0.70;0.65;;;;;;;22.52;45.67;100536.31;4556717;27;20040;-63
2023/05/01 05:29:25;;;;;;;0.90;0.90;;;;;;;22.44;45.80;100520.94;4557596;27;20033;-62
2023/05/01 05:31:36;;;;;;;0.70;0.70;;;;;;;22.56;45.94;100535.19;4544443;27;20228;-62
2023/05/01 05:33:46;;;;;;;0.90;0.73;;;;;;;22.53;45.86;100535.13;4553662;27;20594;-63
2023/05/01 05:35:59;;;;;;;0.88;0.80;;;;;;;22.55;45.82;100542.13;4562277;27;20063;-62
2023/05/01 05:38:14;;;;;;;0.95;0.90;;;;;;;22.55;45.80;100538.47;4557093;27;20319;-63
2023/05/01 05:40:26;;;;;;;0.95;0.80;;;;;;;22.57;45.58;100544.63;4557137;27;20044;-63
2023/05/01 05:42:41;;;;;;;0.65;0.65;;;;;;;22.55;45.73;100538.47;4557429;27;20575;-63
2023/05/01 05:44:51;;;;;;;1.20;0.70;;;;;;;22.53;45.54;100535.97;4556340;27;20044;-63
2023/05/01 05:47:02;;;;;;;0.70;0.70;;;;;;;22.50;45.52;100527.22;4557125;27;20064;-62
2023/05/01 05:49:15;;;;;;;0.70;0.70;;;;;;;22.54;45.57;100526.09;4557140;27;20037;-63
2023/05/01 05:51:26;;;;;;;0.60;0.60;;;;;;;22.51;45.55;100526.84;4563191;27;20021;-63
2023/05/01 05:53:37;;;;;;;0.93;0.82;;;;;;;22.51;45.65;100529.72;4556689;28;21252;-62
2023/05/01 05:55:48;;;;;;;0.70;0.70;;;;;;;22.51;45.51;100528.88;4552162;27;20076;-63
2023/05/01 05:57:58;;;;;;;1.05;0.90;;;;;;;22.52;45.58;100530.56;4556137;27;20064;-63
2023/05/01 06:00:09;;;;;;;0.82;0.82;;;;;;;22.52;45.53;100524.81;4570754;27;20028;-63
2023/05/01 06:02:22;;;;;;;0.77;0.77;;;;;;;22.52;45.62;100537.16;4552513;27;20056;-63
2023/05/01 06:04:33;;;;;;;1.08;0.80;;;;;;;22.48;45.52;100523.88;4552434;27;20159;-62
2023/05/01 06:06:43;;;;;;;0.88;0.80;;;;;;;22.51;45.64;100526.84;4553327;27;20033;-63
2023/05/01 06:08:54;;;;;;;0.70;0.70;;;;;;;22.48;45.63;100523.88;4556475;28;20037;-63
2023/05/01 06:11:06;;;;;;;1.42;0.80;;;;;;;22.51;45.91;100528.88;4555498;27;20908;-63
2023/05/01 06:13:19;;;;;;;1.05;0.70;;;;;;;22.50;45.61;100532.97;4571975;27;20035;-62
2023/05/01 06:15:32;;;;;;;0.60;0.60;;;;;;;22.50;45.98;100525.16;4555206;28;20071;-63
2023/05/01 06:17:43;;;;;;;0.85;0.70;;;;;;;22.50;45.60;100521.47;4555385;27;20397;-62
2023/05/01 06:19:53;;;;;;;0.88;0.70;;;;;;;22.49;45.73;100525.53;4556730;27;20036;-63
2023/05/01 06:22:05;;;;;;;0.98;0.68;;;;;;;22.45;45.87;100518.91;4561517;27;20029;-62
2023/05/01 06:24:20;;;;;;;0.80;0.80;;;;;;;22.48;45.73;100521.84;4543374;27;20043;-62
2023/05/01 06:26:32;;;;;;;1.30;0.80;;;;;;;22.49;46.10;100522.66;4572041;27;20027;-64
2023/05/01 06:28:43;;;;;;;1.02;0.80;;;;;;;22.46;46.04;100515.66;4552718;28;20396;-65
2023/05/01 06:30:53;;;;;;;1.65;0.88;;;;;;;22.48;46.18;100523.88;4556781;27;20033;-65
2023/05/01 06:33:04;;;;;;;0.88;0.70;;;;;;;22.47;45.72;100516.50;4557674;27;20121;-64
2023/05/01 06:35:15;;;;;;;0.80;0.70;;;;;;;22.48;45.90;100526.78;4570438;27;20035;-63
2023/05/01 06:37:26;;;;;;;0.80;0.68;;;;;;;22.47;46.11;100520.16;4573616;27;20051;-62
2023/05/01 06:39:37;;;;;;;0.75;0.70;;;;;;;22.45;46.38;100521.78;4555377;27;20055;-64
2023/05/01 06:41:48;;;;;;;0.80;0.70;;;;;;;22.46;46.14;100520.56;4544747;28;20493;-64
2023/05/01 06:43:59;;;;;;;0.80;0.80;;;;;;;22.45;46.15;100516.88;4556373;27;20059;-63
2023/05/01 06:46:09;;;;;;;0.70;0.70;;;;;;;22.42;45.82;100513.91;4557257;27;20416;-62
2023/05/01 06:48:20;;;;;;;0.63;0.63;;;;;;;22.45;45.89;100524.66;4553353;27;20104;-62
2023/05/01 06:50:31;;;;;;;0.90;0.80;;;;;;;22.45;45.86;100524.66;4570924;27;20054;-62
2023/05/01 06:52:43;;;;;;;0.98;0.80;;;;;;;22.45;46.04;100524.66;4571462;27;20036;-63
2023/05/01 06:54:53;;;;;;;2.05;0.70;;;;;;;22.43;45.83;100515.56;4555589;27;20037;-63
2023/05/01 06:57:04;;;;;;;0.80;0.80;;;;;;;22.41;45.94;100512.25;4545076;27;20126;-63
2023/05/01 06:59:14;;;;;;;0.90;0.80;;;;;;;22.42;45.88;100513.91;4556149;27;20078;-63
2023/05/01 07:01:25;;;;;;;1.02;0.70;;;;;;;22.42;45.76;100513.91;4544355;27;20033;-63
2023/05/01 07:03:35;;;;;;;0.68;0.60;;;;;;;22.40;45.71;100514.31;4569954;27;20040;-63
2023/05/01 07:05:45;;;;;;;0.60;0.60;;;;;;;22.42;45.75;100516.81;4572627;27;20068;-63
2023/05/01 07:07:56;;;;;;;0.75;0.60;;;;;;;22.42;45.75;100508.16;4568907;27;20039;-63
2023/05/01 07:10:07;;;;;;;0.70;0.70;;;;;;;22.42;45.98;100519.66;4570887;27;20040;-63
2023/05/01 07:12:17;;;;;;;0.60;0.60;;;;;;;22.40;46.04;100504.84;4571655;27;20039;-62
2023/05/01 07:14:28;;;;;;;0.77;0.77;;;;;;;22.38;46.23;100513.00;4571020;27;20071;-62
2023/05/01 07:16:38;;;;;;;0.77;0.77;;;;;;;22.38;46.31;100507.25;4572148;27;20507;-63
2023/05/01 07:18:49;;;;;;;0.70;0.60;;;;;;;22.37;46.14;100506.44;4573471;27;20016;-63
2023/05/01 07:20:59;;;;;;;0.82;0.77;;;;;;;22.38;46.14;100502.34;4570641;27;20715;-63
2023/05/01 07:23:10;;;;;;;1.02;0.80;;;;;;;22.35;46.13;100503.09;4553375;27;20063;-63
2023/05/01 07:25:21;;;;;;;0.77;0.70;;;;;;;22.37;46.03;100499.84;4570332;27;20040;-63
2023/05/01 07:27:31;;;;;;;1.05;0.80;;;;;;;22.36;46.19;100504.75;4570999;27;20031;-63
2023/05/01 07:29:41;;;;;;;0.75;0.60;;;;;;;22.36;46.30;100501.06;4538217;28;20040;-63
2023/05/01 07:31:52;;;;;;;0.88;0.70;;;;;;;22.34;46.10;100504.34;4570611;27;20028;-63
2023/05/01 07:34:02;;;;;;;1.25;0.80;;;;;;;22.34;46.15;100494.88;4570782;27;20602;-63
2023/05/01 07:36:13;;;;;;;1.13;0.80;;;;;;;22.35;46.19;100499.38;4569618;27;20170;-63
2023/05/01 07:38:24;;;;;;;0.70;0.70;;;;;;;22.36;46.13;100499.00;4571259;27;20045;-63
2023/05/01 07:40:35;;;;;;;1.15;0.90;;;;;;;22.37;46.24;100499.84;4570507;27;20117;-63
2023/05/01 07:42:45;;;;;;;0.70;0.70;;;;;;;22.37;45.93;100502.72;4570292;27;20089;-63
2023/05/01 07:44:56;;;;;;;2.70;0.80;;;;;;;22.34;45.94;100498.59;4571292;27;20046;-63
2023/05/01 07:47:07;;;;;;;0.70;0.68;;;;;;;22.32;46.48;100497.28;4555295;27;20234;-63
2023/05/01 07:49:18;;;;;;;1.20;0.77;;;;;;;22.34;46.46;100500.63;4555533;27;20112;-62
2023/05/01 07:51:28;;;;;;;0.80;0.70;;;;;;;22.33;46.36;100493.19;4570159;27;20543;-63
2023/05/01 07:53:41;;;;;;;0.90;0.70;;;;;;;22.33;46.11;100496.91;4569846;27;20187;-63
2023/05/01 07:55:51;;;;;;;0.68;0.68;;;;;;;22.35;46.52;100493.63;4556014;27;20041;-63
2023/05/01 07:58:02;;;;;;;1.20;0.68;;;;;;;22.35;46.38;100500.22;4569652;27;20551;-63
2023/05/01 08:00:13;;;;;;;0.70;0.70;;;;;;;22.32;46.19;100498.13;4570784;27;20496;-63
2023/05/01 08:02:26;;;;;;;0.68;0.60;;;;;;;22.36;46.54;100492.44;4568770;27;20197;-64
2023/05/01 08:04:37;;;;;;;0.73;0.70;;;;;;;22.20;46.03;100466.66;4570828;27;20132;-64
2023/05/01 08:06:49;;;;;;;0.60;0.50;;;;;;;22.33;46.38;100494.03;4569630;27;20025;-63
2023/05/01 08:09:00;;;;;;;1.85;0.77;;;;;;;22.34;46.25;100489.97;4569752;27;20626;-64
2023/05/01 08:11:10;;;;;;;0.77;0.60;;;;;;;22.31;46.54;100490.69;4569976;27;20797;-66
2023/05/01 08:13:21;;;;;;;1.63;0.98;;;;;;;22.31;46.24;100487.81;4569156;27;20528;-64
2023/05/01 08:15:31;;;;;;;0.73;0.70;;;;;;;22.33;46.27;100493.19;4572384;27;20614;-65
2023/05/01 08:17:42;;;;;;;0.95;0.70;;;;;;;22.30;46.28;100489.03;4569520;27;20040;-64
2023/05/01 08:19:55;;;;;;;0.68;0.57;;;;;;;22.25;46.72;100480.72;4570359;27;20077;-64
2023/05/01 08:22:05;;;;;;;1.30;0.70;;;;;;;22.28;46.51;100479.16;4573307;27;20075;-64
2023/05/01 08:24:16;;;;;;;0.60;0.60;;;;;;;22.30;46.42;100480.41;4570856;27;20047;-65
2023/05/01 08:26:26;;;;;;;0.70;0.60;;;;;;;22.29;46.63;100477.91;4542012;27;20268;-68
2023/05/01 08:28:36;;;;;;;0.60;0.50;;;;;;;22.42;47.08;100476.53;4571071;27;20031;-62
2023/05/01 08:30:50;;;;;;;1.10;0.80;;;;;;;22.47;46.80;100481.97;4568272;27;20807;-63
2023/05/01 08:33:00;;;;;;;0.85;0.70;;;;;;;22.42;46.33;100474.47;4569030;27;20080;-64
2023/05/01 08:35:11;;;;;;;0.60;0.60;;;;;;;22.42;46.68;100474.47;4571122;27;20039;-63
2023/05/01 08:37:21;;;;;;;0.70;0.70;;;;;;;22.40;46.01;100470.31;4551976;27;20029;-63
2023/05/01 08:39:32;;;;;;;0.80;0.50;;;;;;;22.38;46.43;100470.72;4537034;27;20049;-62
2023/05/01 08:41:46;;;;;;;0.60;0.60;;;;;;;22.38;46.16;100476.47;4542556;28;20028;-62
2023/05/01 08:44:00;;;;;;;0.45;0.43;;;;;;;22.36;46.58;100472.31;4571149;27;20036;-63
2023/05/01 08:46:14;;;;;;;0.82;0.60;;;;;;;22.35;46.43;100473.50;4555760;27;20032;-62
2023/05/01 08:48:26;;;;;;;0.70;0.70;;;;;;;22.35;46.39;100474.34;4570295;27;21203;-62
2023/05/01 08:50:38;;;;;;;0.60;0.60;;;;;;;22.36;46.78;100469.44;4567414;27;20032;-62
2023/05/01 08:52:51;;;;;;;1.05;0.60;;;;;;;22.35;46.97;100474.34;4555901;27;20036;-62
2023/05/01 08:55:03;;;;;;;0.70;0.52;;;;;;;22.33;47.08;100471.03;4569696;27;20200;-62
2023/05/01 08:57:15;;;;;;;0.73;0.45;;;;;;;22.34;47.01;100471.88;4570753;27;20032;-62
2023/05/01 08:59:29;;;;;;;0.90;0.70;;;;;;;22.30;47.13;100454.53;4571895;27;20040;-62
2023/05/01 09:01:42;;;;;;;0.82;0.60;;;;;;;22.32;47.61;100462.78;4571383;27;20043;-62
2023/05/01 09:03:53;;;;;;;1.55;0.50;;;;;;;22.29;47.90;100446.28;4569134;27;20530;-62
2023/05/01 09:06:04;;;;;;;1.48;0.70;;;;;;;22.38;47.25;100464.13;4570622;27;20089;-62
2023/05/01 09:08:15;;;;;;;1.05;0.43;;;;;;;22.37;47.32;100459.59;4554915;27;20031;-62
2023/05/01 09:10:26;;;;;;;0.90;0.63;;;;;;;22.39;47.46;100457.97;4571629;27;20030;-62
2023/05/01 09:12:37;;;;;;;0.95;0.60;;;;;;;22.39;47.33;100463.72;4570121;27;20027;-62
2023/05/01 09:14:50;;;;;;;0.50;0.50;;;;;;;22.39;47.65;100454.28;4567756;27;20060;-62
2023/05/01 09:17:00;;;;;;;0.70;0.60;;;;;;;22.38;48.00;100455.50;4553683;28;21653;-63
2023/05/01 09:19:11;;;;;;;0.60;0.60;;;;;;;22.38;47.43;100452.63;4568843;27;20052;-62
2023/05/01 09:21:24;;;;;;;0.63;0.50;;;;;;;22.39;47.50;100451.41;4570457;27;20027;-61
2023/05/01 09:23:36;;;;;;;0.60;0.50;;;;;;;22.40;47.78;100455.94;4569718;27;20551;-62
2023/05/01 09:25:47;;;;;;;0.50;0.50;;;;;;;22.40;47.71;100453.06;4566373;27;20031;-62
2023/05/01 09:27:57;;;;;;;0.90;0.60;;;;;;;22.35;47.93;100445.59;4555239;28;20055;-62
2023/05/01 09:30:08;;;;;;;1.00;0.70;;;;;;;22.41;47.60;100454.72;4568870;27;20471;-62
2023/05/01 09:32:26;;;;;;;0.85;0.70;;;;;;;22.42;47.42;100450.66;4555012;27;20044;-62
2023/05/01 09:34:37;;;;;;;0.50;0.50;;;;;;;22.41;47.59;100449.81;4567945;27;20598;-62
2023/05/01 09:36:48;;;;;;;0.60;0.60;;;;;;;22.38;47.25;100439.06;4564949;27;20142;-62
2023/05/01 09:39:02;;;;;;;1.10;0.68;;;;;;;22.44;47.60;100446.16;4568555;27;20036;-62
2023/05/01 09:41:13;;;;;;;0.52;0.52;;;;;;;22.40;47.55;100438.69;4568847;27;20583;-62
2023/05/01 09:43:25;;;;;;;0.50;0.50;;;;;;;22.47;47.16;100450.34;4566565;27;20111;-62
2023/05/01 09:45:37;;;;;;;1.17;0.60;;;;;;;22.45;47.60;100442.09;4567723;27;20032;-62
2023/05/01 09:47:48;;;;;;;4.50;1.25;;;;;;;22.47;47.72;100448.28;4565493;27;20109;-62
2023/05/01 09:49:59;;;;;;;2.38;0.80;;;;;;;22.46;47.76;100446.63;4566613;27;20089;-62
2023/05/01 09:52:10;;;;;;;2.08;0.90;;;;;;;22.46;48.04;100448.66;4567836;27;20027;-62
2023/05/01 09:54:20;;;;;;;2.42;0.90;;;;;;;22.46;47.81;100445.78;4568298;27;20599;-60
2023/05/01 09:56:32;;;;;;;1.73;0.90;;;;;;;22.45;47.99;100439.22;4554033;27;20593;-61
2023/05/01 09:58:43;;;;;;;1.75;0.90;;;;;;;22.42;48.00;100428.44;4553070;27;20598;-61
2023/05/01 10:00:53;;;;;;;2.58;0.80;;;;;;;22.43;47.60;100435.88;4570465;27;20123;-61
2023/05/01 10:03:13;;;;;;;1.95;0.70;;;;;;;22.45;47.69;100438.38;4552374;28;20452;-61
2023/05/01 10:05:24;;;;;;;1.20;0.80;;;;;;;22.47;47.83;100436.75;4569477;27;20043;-61
2023/05/01 10:07:34;;;;;;;2.15;1.00;;;;;;;22.46;47.98;100434.28;4554249;27;20726;-61
2023/05/01 10:09:44;;;;;;;3.25;1.00;;;;;;;22.49;47.74;100434.34;4570494;27;20316;-61
2023/05/01 10:11:56;;;;;;;2.20;0.75;;;;;;;22.48;47.87;100440.47;4569283;27;20100;-61
2023/05/01 10:14:08;;;;;;;2.25;0.85;;;;;;;22.50;47.92;100430.25;4569692;27;20047;-61
2023/05/01 10:16:29;;;;;;;3.63;1.20;;;;;;;22.48;48.04;100431.84;4572643;27;20075;-61
2023/05/01 10:18:39;;;;;;;4.18;1.60;;;;;;;22.49;48.30;100433.50;4571915;27;20031;-61